Time;durP1;ratioP1;P1;durP2;ratioP2;P2;SDS_P1;SDS_P2;PMS_P1;PMS_P2;Temp;Humidity;BMP_temperature;BMP_pressure;BME280_temperature;BME280_humidity;BME280_pressure;Samples;Min_cycle;Max_cycle;Signal;HPM_P1;HPM_P2
2023/12/29 00:01:31;;;;;;;2.10;1.58;;;;;;;;;;4969148;28;20113;-80
2023/12/29 00:03:58;;;;;;;2.28;1.30;;;;;;;;;;4985497;28;20401;-82
2023/12/29 00:06:25;;;;;;;2.17;1.13;;;;;;;;;;4983408;28;20101;-81
2023/12/29 00:08:52;;;;;;;2.15;1.35;;;;;;;;;;4968674;28;20077;-82
2023/12/29 00:11:19;;;;;;;1.88;1.60;;;;;;;;;;4969846;28;20057;-81
2023/12/29 00:13:47;;;;;;;2.15;1.95;;;;;;;;;;4968600;28;20046;-81
2023/12/29 00:16:17;;;;;;;1.55;1.35;;;;;;;;;;4971747;28;20092;-80
2023/12/29 00:18:44;;;;;;;2.03;1.70;;;;;;;;;;4976051;28;20516;-80
2023/12/29 00:21:11;;;;;;;1.85;1.75;;;;;;;;;;4983821;28;20077;-81
2023/12/29 00:23:38;;;;;;;2.13;1.50;;;;;;;;;;4966478;28;20478;-80
2023/12/29 00:26:05;;;;;;;2.60;1.98;;;;;;;;;;4965318;28;20421;-80
2023/12/29 00:28:32;;;;;;;1.83;1.52;;;;;;;;;;4969534;28;20137;-80
2023/12/29 00:30:59;;;;;;;1.88;1.65;;;;;;;;;;4969678;28;20085;-80
2023/12/29 00:33:29;;;;;;;2.00;1.73;;;;;;;;;;4966181;28;20066;-80
2023/12/29 00:35:57;;;;;;;1.50;1.40;;;;;;;;;;4986132;28;20081;-80
2023/12/29 00:38:26;;;;;;;2.97;1.42;;;;;;;;;;4969984;28;20058;-80
2023/12/29 00:40:53;;;;;;;2.30;1.98;;;;;;;;;;4969726;28;20077;-80
2023/12/29 00:43:19;;;;;;;3.47;1.50;;;;;;;;;;4969708;28;20417;-80
2023/12/29 00:45:46;;;;;;;1.70;1.60;;;;;;;;;;4970328;28;20049;-81
2023/12/29 00:48:13;;;;;;;1.60;1.23;;;;;;;;;;4987118;28;20093;-81
2023/12/29 00:50:40;;;;;;;2.72;1.60;;;;;;;;;;4971867;28;20108;-80
2023/12/29 00:53:07;;;;;;;2.38;1.70;;;;;;;;;;4973372;28;20136;-81
2023/12/29 00:55:33;;;;;;;1.92;1.70;;;;;;;;;;4975265;28;20458;-81
2023/12/29 00:58:00;;;;;;;1.48;1.38;;;;;;;;;;4977525;28;20049;-82
2023/12/29 01:00:27;;;;;;;2.42;1.60;;;;;;;;;;4994533;28;20064;-82
2023/12/29 01:02:54;;;;;;;1.38;1.27;;;;;;;;;;4996416;28;20050;-81
2023/12/29 01:05:21;;;;;;;2.75;1.75;;;;;;;;;;4997517;28;20049;-80
2023/12/29 01:07:48;;;;;;;2.13;1.60;;;;;;;;;;4969316;28;20050;-79
2023/12/29 01:10:15;;;;;;;2.15;1.77;;;;;;;;;;4968089;28;20058;-80
2023/12/29 01:12:42;;;;;;;1.63;1.52;;;;;;;;;;4985440;28;20054;-80
2023/12/29 01:15:09;;;;;;;2.03;1.70;;;;;;;;;;4970952;28;20062;-80
2023/12/29 01:17:36;;;;;;;1.83;1.50;;;;;;;;;;4986216;28;20073;-81
2023/12/29 01:20:05;;;;;;;1.70;1.60;;;;;;;;;;4976376;28;20072;-80
2023/12/29 01:22:32;;;;;;;2.20;1.50;;;;;;;;;;4964102;28;20057;-79
2023/12/29 01:25:00;;;;;;;3.75;1.58;;;;;;;;;;4962001;28;20097;-80
2023/12/29 01:27:28;;;;;;;2.60;2.20;;;;;;;;;;4959081;28;20042;-80
2023/12/29 01:29:55;;;;;;;3.05;1.88;;;;;;;;;;4965711;28;20058;-79
2023/12/29 01:32:22;;;;;;;2.03;1.45;;;;;;;;;;4965319;28;20133;-80
2023/12/29 01:34:49;;;;;;;1.90;1.58;;;;;;;;;;4983596;28;20053;-79
2023/12/29 01:37:15;;;;;;;1.70;1.40;;;;;;;;;;4965956;28;20205;-80
2023/12/29 01:39:42;;;;;;;2.92;2.22;;;;;;;;;;4965982;28;20053;-79
2023/12/29 01:42:11;;;;;;;3.00;1.92;;;;;;;;;;4966444;28;20084;-79
2023/12/29 01:44:38;;;;;;;3.85;2.33;;;;;;;;;;4985356;28;20114;-79
2023/12/29 01:47:11;;;;;;;2.90;2.25;;;;;;;;;;4963072;28;20073;-80
2023/12/29 01:49:38;;;;;;;3.08;1.80;;;;;;;;;;4947266;28;20161;-80
2023/12/29 01:52:05;;;;;;;1.58;1.48;;;;;;;;;;4952039;28;20053;-79
2023/12/29 01:54:34;;;;;;;1.92;1.65;;;;;;;;;;4965966;28;20052;-79
2023/12/29 01:57:02;;;;;;;2.28;1.77;;;;;;;;;;4966762;28;20115;-80
2023/12/29 01:59:29;;;;;;;2.22;1.80;;;;;;;;;;4969170;28;20057;-80
2023/12/29 02:01:56;;;;;;;3.38;1.90;;;;;;;;;;4971555;28;20058;-81
2023/12/29 02:04:26;;;;;;;2.97;1.90;;;;;;;;;;4963827;28;20085;-80
2023/12/29 02:06:54;;;;;;;4.03;1.90;;;;;;;;;;4971328;28;20057;-80
2023/12/29 02:09:22;;;;;;;2.40;1.83;;;;;;;;;;4971050;28;20135;-80
2023/12/29 02:11:49;;;;;;;3.75;1.92;;;;;;;;;;4970825;28;20053;-80
2023/12/29 02:14:16;;;;;;;2.90;1.77;;;;;;;;;;4971183;28;20262;-80
2023/12/29 02:17:05;;;;;;;2.38;1.90;;;;;;;;;;4971359;28;20054;-80
2023/12/29 02:19:39;;;;;;;1.88;1.77;;;;;;;;;;4983649;28;20085;-81
2023/12/29 02:22:07;;;;;;;2.10;1.70;;;;;;;;;;4985961;28;20090;-81
2023/12/29 02:24:37;;;;;;;2.60;1.65;;;;;;;;;;4970932;28;20057;-80
2023/12/29 02:27:29;;;;;;;3.20;2.40;;;;;;;;;;4965644;28;20065;-80
2023/12/29 02:30:22;;;;;;;2.83;1.90;;;;;;;;;;4979865;28;20054;-79
2023/12/29 02:32:49;;;;;;;1.92;1.60;;;;;;;;;;4986145;28;20052;-79
2023/12/29 02:35:23;;;;;;;3.05;1.73;;;;;;;;;;4965758;28;20120;-80
2023/12/29 02:37:50;;;;;;;3.13;2.13;;;;;;;;;;4964950;28;20056;-79
2023/12/29 02:40:17;;;;;;;4.55;2.42;;;;;;;;;;4972388;28;20058;-80
2023/12/29 02:42:47;;;;;;;2.88;2.17;;;;;;;;;;4978500;28;20057;-79
2023/12/29 02:45:15;;;;;;;2.47;2.28;;;;;;;;;;4962366;28;20105;-80
2023/12/29 02:47:43;;;;;;;3.22;2.05;;;;;;;;;;4962754;28;20073;-80
2023/12/29 02:50:10;;;;;;;3.33;2.38;;;;;;;;;;4979046;28;20160;-80
2023/12/29 02:52:37;;;;;;;2.83;2.28;;;;;;;;;;4968505;28;20132;-79
2023/12/29 02:55:04;;;;;;;3.17;2.28;;;;;;;;;;4974792;28;20600;-79
2023/12/29 02:57:31;;;;;;;4.00;1.73;;;;;;;;;;4983974;28;20416;-80
2023/12/29 02:59:58;;;;;;;3.08;2.08;;;;;;;;;;4979233;28;20505;-80
2023/12/29 03:02:25;;;;;;;2.33;2.08;;;;;;;;;;4983532;28;20076;-80
2023/12/29 03:04:51;;;;;;;4.13;2.60;;;;;;;;;;4983711;28;20049;-80
2023/12/29 03:07:18;;;;;;;3.83;2.22;;;;;;;;;;4984566;28;20084;-80
2023/12/29 03:09:45;;;;;;;1.95;1.70;;;;;;;;;;4984737;28;20055;-80
2023/12/29 03:12:12;;;;;;;2.33;1.92;;;;;;;;;;4995397;28;20109;-80
2023/12/29 03:14:38;;;;;;;3.60;1.88;;;;;;;;;;5003289;28;20555;-82
2023/12/29 03:17:05;;;;;;;2.70;1.75;;;;;;;;;;4989895;28;20084;-81
2023/12/29 03:19:33;;;;;;;2.63;1.85;;;;;;;;;;4990231;28;20049;-80
2023/12/29 03:22:00;;;;;;;2.85;2.13;;;;;;;;;;5005512;28;20497;-80
2023/12/29 03:24:29;;;;;;;2.80;1.90;;;;;;;;;;4980653;28;20081;-80
2023/12/29 03:26:56;;;;;;;2.22;1.80;;;;;;;;;;4988323;28;20061;-80
2023/12/29 03:29:22;;;;;;;2.13;1.90;;;;;;;;;;4990551;28;20054;-79
2023/12/29 03:31:49;;;;;;;3.55;1.90;;;;;;;;;;4988443;28;20056;-80
2023/12/29 03:34:16;;;;;;;3.33;1.83;;;;;;;;;;5005269;28;20053;-79
2023/12/29 03:36:43;;;;;;;3.28;2.33;;;;;;;;;;4982941;28;20050;-79
2023/12/29 03:39:10;;;;;;;2.30;2.10;;;;;;;;;;4989749;28;20049;-80
2023/12/29 03:41:37;;;;;;;3.25;1.90;;;;;;;;;;5004926;28;20122;-80
2023/12/29 03:44:05;;;;;;;4.78;2.83;;;;;;;;;;5004785;28;20050;-80
2023/12/29 03:46:33;;;;;;;2.33;1.80;;;;;;;;;;5004660;28;20064;-80
2023/12/29 03:48:59;;;;;;;2.78;1.90;;;;;;;;;;4982831;28;20527;-80
2023/12/29 03:51:26;;;;;;;3.50;2.53;;;;;;;;;;4987673;28;20131;-79
2023/12/29 03:53:53;;;;;;;2.63;2.00;;;;;;;;;;5003707;28;20575;-80
2023/12/29 03:56:20;;;;;;;2.97;2.17;;;;;;;;;;4988747;28;20136;-80
2023/12/29 03:58:47;;;;;;;3.15;2.05;;;;;;;;;;4988613;28;20052;-80
2023/12/29 04:01:16;;;;;;;2.47;1.80;;;;;;;;;;5002284;28;20104;-80
2023/12/29 04:03:43;;;;;;;3.00;2.20;;;;;;;;;;4988430;28;20046;-80
2023/12/29 04:06:10;;;;;;;4.63;1.90;;;;;;;;;;4989000;28;20061;-80
2023/12/29 04:08:37;;;;;;;3.00;1.77;;;;;;;;;;4988333;28;20045;-80
2023/12/29 04:11:05;;;;;;;2.22;1.70;;;;;;;;;;4981205;28;20053;-80
2023/12/29 04:13:32;;;;;;;2.10;1.88;;;;;;;;;;4997772;28;20073;-80
2023/12/29 04:15:59;;;;;;;2.83;1.83;;;;;;;;;;4998466;28;20056;-80
2023/12/29 04:18:26;;;;;;;3.42;2.17;;;;;;;;;;5006620;28;20105;-80
2023/12/29 04:20:53;;;;;;;1.65;1.27;;;;;;;;;;4989986;28;20057;-79
2023/12/29 04:23:20;;;;;;;2.30;1.73;;;;;;;;;;5005520;28;20045;-79
2023/12/29 04:25:47;;;;;;;2.10;1.80;;;;;;;;;;4988178;28;20455;-79
2023/12/29 04:28:13;;;;;;;2.40;1.70;;;;;;;;;;4989050;28;20136;-80
2023/12/29 04:30:40;;;;;;;1.77;1.33;;;;;;;;;;4989334;28;20523;-80
2023/12/29 04:33:07;;;;;;;2.83;1.55;;;;;;;;;;5005986;28;20057;-79
2023/12/29 04:35:34;;;;;;;2.10;1.42;;;;;;;;;;4989316;28;20473;-80
2023/12/29 04:38:01;;;;;;;2.78;1.65;;;;;;;;;;4988292;28;20045;-80
2023/12/29 04:40:28;;;;;;;1.90;1.63;;;;;;;;;;4989087;28;20049;-80
2023/12/29 04:42:55;;;;;;;4.15;1.52;;;;;;;;;;4988333;28;20505;-80
2023/12/29 04:45:21;;;;;;;1.60;1.38;;;;;;;;;;4988474;28;20049;-80
2023/12/29 04:47:48;;;;;;;3.15;1.42;;;;;;;;;;4987907;28;20080;-78
2023/12/29 04:50:15;;;;;;;2.15;1.50;;;;;;;;;;4975353;28;20481;-77
2023/12/29 04:52:42;;;;;;;1.80;1.40;;;;;;;;;;4979856;28;20049;-79
2023/12/29 04:55:09;;;;;;;2.00;1.50;;;;;;;;;;4970037;28;20058;-81
2023/12/29 04:57:39;;;;;;;1.80;1.70;;;;;;;;;;4978936;28;20042;-80
2023/12/29 05:00:07;;;;;;;1.70;1.60;;;;;;;;;;5000320;28;20057;-81
2023/12/29 05:02:34;;;;;;;3.35;1.50;;;;;;;;;;4987504;28;20428;-82
2023/12/29 05:05:01;;;;;;;2.22;1.75;;;;;;;;;;4971791;28;20154;-81
2023/12/29 05:07:27;;;;;;;2.50;1.33;;;;;;;;;;4972678;28;20101;-81
2023/12/29 05:09:54;;;;;;;1.63;1.52;;;;;;;;;;4989006;28;20064;-81
2023/12/29 05:12:21;;;;;;;1.67;1.58;;;;;;;;;;4989589;28;20056;-81
2023/12/29 05:14:48;;;;;;;2.08;1.75;;;;;;;;;;4976842;28;20046;-81
2023/12/29 05:17:15;;;;;;;1.75;1.42;;;;;;;;;;4971071;28;20050;-80
2023/12/29 05:19:41;;;;;;;1.65;1.38;;;;;;;;;;4972887;28;20077;-81
2023/12/29 05:22:08;;;;;;;3.05;1.80;;;;;;;;;;4987559;28;20174;-81
2023/12/29 05:24:35;;;;;;;3.22;1.90;;;;;;;;;;4983601;28;20073;-82
2023/12/29 05:27:02;;;;;;;2.13;1.73;;;;;;;;;;4971774;28;20497;-82
2023/12/29 05:29:35;;;;;;;1.60;1.50;;;;;;;;;;4981819;28;20054;-82
2023/12/29 05:32:03;;;;;;;3.25;1.80;;;;;;;;;;4985273;28;20046;-81
2023/12/29 05:34:29;;;;;;;2.20;1.70;;;;;;;;;;4973352;28;20139;-82
2023/12/29 05:36:57;;;;;;;2.70;1.83;;;;;;;;;;4996492;28;20061;-83
2023/12/29 05:39:24;;;;;;;2.67;1.90;;;;;;;;;;5004884;28;20053;-82
2023/12/29 05:41:51;;;;;;;1.67;1.52;;;;;;;;;;4989675;28;20026;-83
2023/12/29 05:44:18;;;;;;;2.33;1.83;;;;;;;;;;4975437;28;20141;-82
2023/12/29 05:46:47;;;;;;;2.30;2.00;;;;;;;;;;4966905;28;20133;-81
2023/12/29 05:49:14;;;;;;;2.00;1.77;;;;;;;;;;4963416;28;20108;-81
2023/12/29 05:51:42;;;;;;;2.45;1.83;;;;;;;;;;4966871;28;20172;-81
2023/12/29 05:54:09;;;;;;;2.85;1.80;;;;;;;;;;4968575;28;20141;-82
2023/12/29 05:56:36;;;;;;;2.33;1.80;;;;;;;;;;4975684;28;20464;-82
2023/12/29 05:59:03;;;;;;;2.03;1.83;;;;;;;;;;4967294;28;20109;-81
2023/12/29 06:01:29;;;;;;;2.53;1.80;;;;;;;;;;4968968;28;20046;-82
2023/12/29 06:03:56;;;;;;;2.55;1.88;;;;;;;;;;4965568;28;20050;-81
2023/12/29 06:06:23;;;;;;;2.30;2.05;;;;;;;;;;4958136;28;20050;-82
2023/12/29 06:08:50;;;;;;;2.70;1.88;;;;;;;;;;4977909;28;20100;-81
2023/12/29 06:11:17;;;;;;;1.90;1.70;;;;;;;;;;4985714;28;20084;-81
2023/12/29 06:13:44;;;;;;;2.83;1.80;;;;;;;;;;4969028;28;20077;-81
2023/12/29 06:16:17;;;;;;;2.10;1.90;;;;;;;;;;5001131;28;20045;-81
2023/12/29 06:18:44;;;;;;;3.33;2.25;;;;;;;;;;4968997;28;20100;-81
2023/12/29 06:21:11;;;;;;;4.18;2.10;;;;;;;;;;4970228;28;20425;-81
2023/12/29 06:23:38;;;;;;;2.15;1.95;;;;;;;;;;4985809;28;20081;-81
2023/12/29 06:26:04;;;;;;;2.53;2.33;;;;;;;;;;4964073;28;20136;-81
2023/12/29 06:28:31;;;;;;;2.50;2.30;;;;;;;;;;4974010;28;20065;-81
2023/12/29 06:30:58;;;;;;;2.42;2.10;;;;;;;;;;4970207;28;20054;-81
2023/12/29 06:33:25;;;;;;;3.08;2.30;;;;;;;;;;4973962;28;20048;-81
2023/12/29 06:35:52;;;;;;;2.85;2.05;;;;;;;;;;4971616;28;20105;-82
2023/12/29 06:38:19;;;;;;;2.15;1.95;;;;;;;;;;4964759;28;20076;-81
2023/12/29 06:40:46;;;;;;;3.78;2.25;;;;;;;;;;4985808;28;20139;-81
2023/12/29 06:43:12;;;;;;;3.90;2.30;;;;;;;;;;4986403;28;20081;-81
2023/12/29 06:45:39;;;;;;;2.53;2.20;;;;;;;;;;4970590;28;20501;-81
2023/12/29 06:48:06;;;;;;;1.92;1.70;;;;;;;;;;4983035;28;20118;-81
2023/12/29 06:50:33;;;;;;;2.45;1.85;;;;;;;;;;4971077;28;20088;-81
2023/12/29 06:53:05;;;;;;;3.42;1.75;;;;;;;;;;4985756;28;20104;-78
2023/12/29 06:55:31;;;;;;;2.50;1.60;;;;;;;;;;4980619;28;20537;-78
2023/12/29 06:57:58;;;;;;;1.95;1.73;;;;;;;;;;4961253;28;20129;-79
2023/12/29 07:00:25;;;;;;;2.20;1.80;;;;;;;;;;4962370;28;20049;-80
2023/12/29 07:02:52;;;;;;;2.53;2.22;;;;;;;;;;4967834;28;20398;-79
2023/12/29 07:05:19;;;;;;;2.45;1.75;;;;;;;;;;4969050;28;20058;-80
2023/12/29 07:07:46;;;;;;;1.63;1.52;;;;;;;;;;4967642;28;20053;-80
2023/12/29 07:10:13;;;;;;;2.85;1.70;;;;;;;;;;4983471;28;20497;-79
2023/12/29 07:12:41;;;;;;;6.18;1.58;;;;;;;;;;4966633;28;20056;-80
2023/12/29 07:15:08;;;;;;;2.63;1.50;;;;;;;;;;4967166;28;20050;-80
2023/12/29 07:17:35;;;;;;;1.90;1.60;;;;;;;;;;4967330;28;20478;-80
2023/12/29 07:20:02;;;;;;;1.75;1.50;;;;;;;;;;4967101;28;20077;-79
2023/12/29 07:22:30;;;;;;;3.17;1.48;;;;;;;;;;4967205;28;20148;-79
2023/12/29 07:24:57;;;;;;;3.10;1.45;;;;;;;;;;4974979;28;20034;-79
2023/12/29 07:27:24;;;;;;;1.90;1.67;;;;;;;;;;4992064;28;20100;-79
2023/12/29 07:29:51;;;;;;;2.67;1.50;;;;;;;;;;5001267;28;20050;-79
2023/12/29 07:32:17;;;;;;;1.30;1.20;;;;;;;;;;4982606;28;20044;-80
2023/12/29 07:34:44;;;;;;;3.85;1.45;;;;;;;;;;4965633;28;20085;-79
2023/12/29 07:37:11;;;;;;;1.90;1.65;;;;;;;;;;4965701;28;20066;-79
2023/12/29 07:39:38;;;;;;;1.90;1.70;;;;;;;;;;4966361;28;20097;-79
2023/12/29 07:42:05;;;;;;;3.38;1.50;;;;;;;;;;4983861;28;20053;-79
2023/12/29 07:44:32;;;;;;;1.40;1.30;;;;;;;;;;4966441;28;20061;-79
2023/12/29 07:46:59;;;;;;;2.55;1.40;;;;;;;;;;4985353;28;20064;-79
2023/12/29 07:49:26;;;;;;;1.80;1.40;;;;;;;;;;4968762;28;20077;-79
2023/12/29 07:51:53;;;;;;;2.15;1.30;;;;;;;;;;4984844;28;20050;-79
2023/12/29 07:54:20;;;;;;;3.25;1.20;;;;;;;;;;4968166;28;20120;-80
2023/12/29 07:56:47;;;;;;;1.20;1.00;;;;;;;;;;4967703;28;20072;-80
2023/12/29 07:59:13;;;;;;;1.95;1.75;;;;;;;;;;4959962;28;20054;-80
2023/12/29 08:01:40;;;;;;;2.05;1.23;;;;;;;;;;4967159;28;20357;-81
2023/12/29 08:04:07;;;;;;;3.22;1.23;;;;;;;;;;4966597;28;20104;-78
2023/12/29 08:06:40;;;;;;;3.58;1.20;;;;;;;;;;4967884;28;20133;-79
2023/12/29 08:09:07;;;;;;;2.08;0.90;;;;;;;;;;4981200;28;20046;-81
2023/12/29 08:11:34;;;;;;;1.80;1.20;;;;;;;;;;4967049;28;20089;-79
2023/12/29 08:14:00;;;;;;;2.05;1.48;;;;;;;;;;4965223;28;20424;-79
2023/12/29 08:16:27;;;;;;;2.00;1.33;;;;;;;;;;4986696;28;20072;-78
2023/12/29 08:18:54;;;;;;;1.60;1.33;;;;;;;;;;4965457;28;20060;-77
2023/12/29 08:21:21;;;;;;;2.33;1.30;;;;;;;;;;4982301;28;20061;-77
2023/12/29 08:23:49;;;;;;;1.58;1.40;;;;;;;;;;4966509;28;20060;-80
2023/12/29 08:26:16;;;;;;;4.13;1.30;;;;;;;;;;4966818;28;20489;-77
2023/12/29 08:28:42;;;;;;;2.72;1.10;;;;;;;;;;4963823;28;20088;-76
2023/12/29 08:31:09;;;;;;;2.42;1.33;;;;;;;;;;4979352;28;20049;-76
2023/12/29 08:33:36;;;;;;;2.15;1.42;;;;;;;;;;4981150;28;20145;-81
2023/12/29 08:36:04;;;;;;;1.27;1.15;;;;;;;;;;4979790;28;20643;-79
2023/12/29 08:38:33;;;;;;;1.92;1.30;;;;;;;;;;4960616;28;20045;-77
2023/12/29 08:41:00;;;;;;;1.30;1.15;;;;;;;;;;4992935;28;20052;-80
2023/12/29 08:43:27;;;;;;;3.95;1.75;;;;;;;;;;4965967;28;20523;-78
2023/12/29 08:45:54;;;;;;;3.00;1.20;;;;;;;;;;4977834;28;20136;-77
2023/12/29 08:48:21;;;;;;;1.88;1.10;;;;;;;;;;4960325;28;20053;-77
2023/12/29 08:50:49;;;;;;;1.48;1.20;;;;;;;;;;4976262;28;20096;-76
2023/12/29 08:53:17;;;;;;;1.95;1.50;;;;;;;;;;4995037;28;20050;-77
2023/12/29 08:55:44;;;;;;;3.38;2.20;;;;;;;;;;4962067;28;20050;-78
2023/12/29 08:58:12;;;;;;;2.38;1.40;;;;;;;;;;4976360;28;20046;-77
2023/12/29 09:00:39;;;;;;;3.13;1.48;;;;;;;;;;4957579;28;20050;-78
2023/12/29 09:03:06;;;;;;;1.65;1.35;;;;;;;;;;4963020;28;20565;-78
2023/12/29 09:05:33;;;;;;;1.40;1.30;;;;;;;;;;4976797;28;20085;-78
2023/12/29 09:08:00;;;;;;;2.75;1.48;;;;;;;;;;4953026;28;20099;-78
2023/12/29 09:10:27;;;;;;;2.53;1.13;;;;;;;;;;4961419;28;20125;-78
2023/12/29 09:12:53;;;;;;;2.17;1.70;;;;;;;;;;4976381;28;20626;-77
2023/12/29 09:15:20;;;;;;;1.80;1.45;;;;;;;;;;4959156;28;20058;-82
2023/12/29 09:17:47;;;;;;;2.33;1.27;;;;;;;;;;4958269;28;20096;-79
2023/12/29 09:20:14;;;;;;;1.40;1.30;;;;;;;;;;4979090;28;20054;-79
2023/12/29 09:22:41;;;;;;;2.72;1.83;;;;;;;;;;4976689;28;20050;-79
2023/12/29 09:25:08;;;;;;;3.47;2.30;;;;;;;;;;4973258;28;20145;-79
2023/12/29 09:27:35;;;;;;;4.70;2.58;;;;;;;;;;4959738;28;20050;-79
2023/12/29 09:30:04;;;;;;;5.13;1.90;;;;;;;;;;4962600;28;20130;-79
2023/12/29 09:32:30;;;;;;;2.55;1.90;;;;;;;;;;4957340;28;20056;-79
2023/12/29 09:34:57;;;;;;;2.08;1.52;;;;;;;;;;4977459;28;20118;-79
2023/12/29 09:37:24;;;;;;;1.95;1.65;;;;;;;;;;4956284;28;20051;-79
2023/12/29 09:39:51;;;;;;;2.08;1.30;;;;;;;;;;4989801;28;20097;-79
2023/12/29 09:42:23;;;;;;;1.40;1.30;;;;;;;;;;4959587;28;20050;-79
2023/12/29 09:44:51;;;;;;;2.08;1.67;;;;;;;;;;4965102;28;20060;-80
2023/12/29 09:47:25;;;;;;;1.13;1.02;;;;;;;;;;4964740;28;20057;-80
2023/12/29 09:49:53;;;;;;;1.92;1.75;;;;;;;;;;4979215;28;20046;-80
2023/12/29 09:52:24;;;;;;;1.20;1.05;;;;;;;;;;4958198;28;20053;-79
2023/12/29 09:54:52;;;;;;;3.78;1.35;;;;;;;;;;4956866;28;20425;-79
2023/12/29 09:57:19;;;;;;;2.53;1.42;;;;;;;;;;4954434;28;20112;-80
2023/12/29 09:59:46;;;;;;;0.93;0.90;;;;;;;;;;4968545;28;20425;-79
2023/12/29 10:02:16;;;;;;;1.30;1.20;;;;;;;;;;4952805;28;20612;-79
2023/12/29 10:04:43;;;;;;;2.15;0.90;;;;;;;;;;4952595;28;20492;-79
2023/12/29 10:07:13;;;;;;;2.45;1.42;;;;;;;;;;4970218;28;20056;-79
2023/12/29 10:09:40;;;;;;;1.92;1.10;;;;;;;;;;4973303;28;20127;-79
2023/12/29 10:12:10;;;;;;;1.40;1.30;;;;;;;;;;4959370;28;20060;-79
2023/12/29 10:15:06;;;;;;;2.50;1.10;;;;;;;;;;4962108;28;20058;-79
2023/12/29 10:17:52;;;;;;;1.08;0.98;;;;;;;;;;4962945;28;20065;-79
2023/12/29 10:20:43;;;;;;;1.00;1.00;;;;;;;;;;4964495;28;20133;-80
2023/12/29 10:23:18;;;;;;;1.00;0.90;;;;;;;;;;4971875;28;20473;-79
2023/12/29 10:25:46;;;;;;;0.93;0.80;;;;;;;;;;4971200;28;20104;-79
2023/12/29 10:28:13;;;;;;;1.27;0.82;;;;;;;;;;4963228;28;20604;-79
2023/12/29 10:30:40;;;;;;;1.38;0.95;;;;;;;;;;4955396;28;20043;-79
2023/12/29 10:33:08;;;;;;;2.00;1.23;;;;;;;;;;4979234;28;20045;-79
2023/12/29 10:35:37;;;;;;;1.63;1.20;;;;;;;;;;4968606;28;20045;-79
2023/12/29 10:38:11;;;;;;;2.10;0.95;;;;;;;;;;4955743;28;20101;-79
2023/12/29 10:40:39;;;;;;;1.35;1.23;;;;;;;;;;4957714;28;20426;-79
2023/12/29 10:43:08;;;;;;;1.15;1.05;;;;;;;;;;4960467;28;20092;-83
2023/12/29 10:45:38;;;;;;;11.02;4.93;;;;;;;;;;4966640;28;20054;-80
2023/12/29 10:48:05;;;;;;;2.65;1.40;;;;;;;;;;4954889;28;20058;-79
2023/12/29 10:50:45;;;;;;;4.20;1.30;;;;;;;;;;4971480;28;20077;-81
2023/12/29 10:53:18;;;;;;;2.20;1.30;;;;;;;;;;4970636;28;20081;-80
2023/12/29 10:55:45;;;;;;;0.75;0.68;;;;;;;;;;4959133;28;20053;-78
2023/12/29 10:58:12;;;;;;;1.83;1.20;;;;;;;;;;4959870;28;20104;-79
2023/12/29 11:00:38;;;;;;;4.47;0.98;;;;;;;;;;4987879;28;20030;-78
2023/12/29 11:03:06;;;;;;;1.73;0.80;;;;;;;;;;5000642;28;20057;-79
2023/12/29 11:05:34;;;;;;;0.70;0.60;;;;;;;;;;5002012;28;20077;-79
2023/12/29 11:08:01;;;;;;;1.08;0.70;;;;;;;;;;4989212;28;20100;-81
2023/12/29 11:10:27;;;;;;;0.55;0.55;;;;;;;;;;4979307;28;20049;-79
2023/12/29 11:12:54;;;;;;;0.70;0.60;;;;;;;;;;4977160;28;20046;-80
2023/12/29 11:15:21;;;;;;;2.55;0.60;;;;;;;;;;4977596;28;20054;-80
2023/12/29 11:17:52;;;;;;;1.60;0.80;;;;;;;;;;4960989;28;20129;-80
2023/12/29 11:20:19;;;;;;;0.73;0.70;;;;;;;;;;4956306;28;20060;-81
2023/12/29 11:22:46;;;;;;;0.77;0.75;;;;;;;;;;4967372;28;20069;-81
2023/12/29 11:25:15;;;;;;;1.33;0.82;;;;;;;;;;4953401;28;20061;-81
2023/12/29 11:27:42;;;;;;;2.28;0.90;;;;;;;;;;4948098;28;20050;-81
2023/12/29 11:30:10;;;;;;;0.75;0.70;;;;;;;;;;4969481;28;20058;-79
2023/12/29 11:32:49;;;;;;;0.65;0.65;;;;;;;;;;4968275;28;20050;-80
2023/12/29 11:35:29;;;;;;;0.60;0.60;;;;;;;;;;4966949;28;20050;-81
2023/12/29 11:38:29;;;;;;;0.80;0.70;;;;;;;;;;4959553;28;20088;-80
2023/12/29 11:41:09;;;;;;;0.70;0.63;;;;;;;;;;5005447;28;20128;-80
2023/12/29 11:43:37;;;;;;;1.10;0.73;;;;;;;;;;4956585;28;20054;-80
2023/12/29 11:46:04;;;;;;;0.50;0.40;;;;;;;;;;4972225;28;20124;-80
2023/12/29 11:48:56;;;;;;;2.58;1.13;;;;;;;;;;4961272;28;20548;-80
2023/12/29 11:51:32;;;;;;;0.57;0.57;;;;;;;;;;4977482;28;20062;-81
2023/12/29 11:54:01;;;;;;;0.93;0.70;;;;;;;;;;4963890;28;20104;-80
2023/12/29 11:56:41;;;;;;;2.55;1.42;;;;;;;;;;4962823;28;20130;-80
2023/12/29 11:59:20;;;;;;;1.30;1.00;;;;;;;;;;4978872;28;20046;-80
2023/12/29 12:01:51;;;;;;;2.95;1.80;;;;;;;;;;4979759;28;20505;-80
2023/12/29 12:04:40;;;;;;;1.00;0.82;;;;;;;;;;4985179;28;20057;-80
2023/12/29 12:07:27;;;;;;;4.18;1.50;;;;;;;;;;4974296;28;20068;-80
2023/12/29 12:10:19;;;;;;;0.80;0.60;;;;;;;;;;5010885;28;20089;-79
2023/12/29 12:12:48;;;;;;;0.88;0.73;;;;;;;;;;4992025;28;20057;-80
2023/12/29 12:15:28;;;;;;;0.75;0.70;;;;;;;;;;4965453;28;20586;-80
2023/12/29 12:17:56;;;;;;;0.60;0.60;;;;;;;;;;4992917;28;20078;-79
2023/12/29 12:20:23;;;;;;;1.17;1.08;;;;;;;;;;4959438;28;20054;-79
2023/12/29 12:23:08;;;;;;;1.05;0.70;;;;;;;;;;4955904;28;20076;-81
2023/12/29 12:25:37;;;;;;;0.98;0.47;;;;;;;;;;4979674;28;20108;-81
2023/12/29 12:28:06;;;;;;;1.00;0.80;;;;;;;;;;4971164;28;20128;-82
2023/12/29 12:30:36;;;;;;;1.55;0.80;;;;;;;;;;4962806;28;20060;-81
2023/12/29 12:33:04;;;;;;;0.63;0.63;;;;;;;;;;4971191;28;20042;-82
2023/12/29 12:35:32;;;;;;;0.50;0.50;;;;;;;;;;4962537;28;20054;-80
2023/12/29 12:38:22;;;;;;;0.90;0.80;;;;;;;;;;4978962;28;20049;-82
2023/12/29 12:40:49;;;;;;;1.02;0.77;;;;;;;;;;4966433;28;20153;-80
2023/12/29 12:43:16;;;;;;;0.98;0.88;;;;;;;;;;4966177;28;20096;-79
2023/12/29 12:45:54;;;;;;;0.80;0.77;;;;;;;;;;4965743;28;20480;-79
2023/12/29 12:48:23;;;;;;;1.42;0.60;;;;;;;;;;4963359;28;20042;-79
2023/12/29 12:50:51;;;;;;;1.92;0.90;;;;;;;;;;4958069;28;20038;-79
2023/12/29 12:53:20;;;;;;;0.55;0.55;;;;;;;;;;4955329;28;20050;-79
2023/12/29 12:55:49;;;;;;;1.85;0.88;;;;;;;;;;4959178;28;20049;-80
2023/12/29 12:58:23;;;;;;;0.60;0.60;;;;;;;;;;4963202;28;20061;-79
2023/12/29 13:00:50;;;;;;;1.83;0.55;;;;;;;;;;4955274;28;20493;-80
2023/12/29 13:03:21;;;;;;;1.38;0.63;;;;;;;;;;4954953;28;20055;-80
2023/12/29 13:05:48;;;;;;;1.13;1.00;;;;;;;;;;4956110;28;20051;-79
2023/12/29 13:08:15;;;;;;;2.17;1.77;;;;;;;;;;4958080;28;20058;-79
2023/12/29 13:10:55;;;;;;;1.20;0.90;;;;;;;;;;4981198;28;20090;-84
2023/12/29 13:13:22;;;;;;;1.02;0.90;;;;;;;;;;4962754;28;20565;-81
2023/12/29 13:15:49;;;;;;;1.25;0.90;;;;;;;;;;4973345;28;20042;-82
2023/12/29 13:18:16;;;;;;;1.77;0.82;;;;;;;;;;4960198;28;20529;-81
2023/12/29 13:20:47;;;;;;;1.35;1.00;;;;;;;;;;4970562;28;20042;-81
2023/12/29 13:23:14;;;;;;;0.88;0.82;;;;;;;;;;4952459;28;20048;-82
2023/12/29 13:25:43;;;;;;;1.10;0.70;;;;;;;;;;4953103;28;20042;-81
2023/12/29 13:28:10;;;;;;;0.93;0.80;;;;;;;;;;4960642;28;20050;-81
2023/12/29 13:30:37;;;;;;;1.90;1.10;;;;;;;;;;4965237;28;20043;-82
2023/12/29 13:33:10;;;;;;;0.70;0.70;;;;;;;;;;4968174;28;20058;-83
2023/12/29 13:35:39;;;;;;;1.45;0.80;;;;;;;;;;4963234;28;20080;-80
2023/12/29 13:38:21;;;;;;;2.70;0.98;;;;;;;;;;4977673;28;20505;-80
2023/12/29 13:41:01;;;;;;;1.02;0.90;;;;;;;;;;4959043;28;20125;-81
2023/12/29 13:43:29;;;;;;;1.05;0.70;;;;;;;;;;4954335;28;20088;-81
2023/12/29 13:45:55;;;;;;;1.10;1.00;;;;;;;;;;4985675;28;20054;-81
2023/12/29 13:48:22;;;;;;;0.70;0.70;;;;;;;;;;4969166;28;20421;-80
2023/12/29 13:50:50;;;;;;;1.30;0.93;;;;;;;;;;4967492;28;20585;-81
2023/12/29 13:53:18;;;;;;;1.23;1.02;;;;;;;;;;4967972;28;20508;-81
2023/12/29 13:55:45;;;;;;;2.38;1.35;;;;;;;;;;4960193;28;20082;-81
2023/12/29 13:58:13;;;;;;;0.77;0.77;;;;;;;;;;4961919;28;20112;-81
2023/12/29 14:00:40;;;;;;;0.88;0.68;;;;;;;;;;4979536;28;20490;-82
2023/12/29 14:03:23;;;;;;;0.80;0.80;;;;;;;;;;4961726;28;20077;-83
2023/12/29 14:05:59;;;;;;;;;;;;;;;;;;4973244;28;20054;-83
2023/12/29 14:08:34;;;;;;;2.90;0.68;;;;;;;;;;4978515;28;19922;-84
2023/12/29 14:11:06;;;;;;;0.82;0.70;;;;;;;;;;4973852;28;20042;-83
2023/12/29 14:13:33;;;;;;;0.95;0.90;;;;;;;;;;4962439;28;20140;-83
2023/12/29 14:16:00;;;;;;;0.60;0.60;;;;;;;;;;4955785;28;20050;-83
2023/12/29 14:18:30;;;;;;;1.35;0.60;;;;;;;;;;4960441;28;20046;-82
2023/12/29 14:20:56;;;;;;;0.77;0.77;;;;;;;;;;4984697;28;20049;-83
2023/12/29 14:23:23;;;;;;;1.02;0.93;;;;;;;;;;4951169;28;20053;-83
2023/12/29 14:25:50;;;;;;;2.88;1.13;;;;;;;;;;4978576;28;20045;-83
2023/12/29 14:28:19;;;;;;;0.82;0.75;;;;;;;;;;4972264;28;20137;-82
2023/12/29 14:30:46;;;;;;;1.52;1.10;;;;;;;;;;4961727;28;20054;-83
2023/12/29 14:33:13;;;;;;;5.78;2.20;;;;;;;;;;4968460;28;20085;-84
2023/12/29 14:35:40;;;;;;;5.50;1.70;;;;;;;;;;4978508;28;20073;-82
2023/12/29 14:38:07;;;;;;;2.97;1.30;;;;;;;;;;4973829;28;20060;-83
2023/12/29 14:40:34;;;;;;;1.52;0.80;;;;;;;;;;5007357;28;20107;-84
2023/12/29 14:43:02;;;;;;;2.15;1.00;;;;;;;;;;5004227;28;20042;-85
2023/12/29 14:45:30;;;;;;;1.20;1.10;;;;;;;;;;4976903;28;20100;-82
2023/12/29 14:47:58;;;;;;;1.23;0.93;;;;;;;;;;4987421;28;20169;-82
2023/12/29 14:50:26;;;;;;;1.45;1.23;;;;;;;;;;4953014;28;20050;-82
2023/12/29 14:52:53;;;;;;;3.38;1.25;;;;;;;;;;4953551;28;20052;-82